createdAt,value
2019-06-25T00:00:52.083Z,102269.91
2019-06-25T00:03:20.582Z,102265.52
2019-06-25T00:05:49.062Z,102274.25
2019-06-25T00:08:17.561Z,102266.80
2019-06-25T00:10:46.068Z,102261.55
2019-06-25T00:13:14.548Z,102268.55
2019-06-25T00:15:43.071Z,102258.46
2019-06-25T00:18:13.271Z,102257.13
2019-06-25T00:20:41.746Z,102258.41
2019-06-25T00:23:10.221Z,102258.38
2019-06-25T00:25:38.747Z,102251.79
2019-06-25T00:28:07.309Z,102264.00
2019-06-25T00:30:35.807Z,102262.22
2019-06-25T00:33:04.391Z,102264.41
2019-06-25T00:35:32.872Z,102261.34
2019-06-25T00:38:01.354Z,102267.00
2019-06-25T00:40:29.901Z,102261.75
2019-06-25T00:42:58.376Z,102266.59
2019-06-25T00:45:26.864Z,102266.12
2019-06-25T00:47:55.383Z,102260.85
2019-06-25T00:50:23.921Z,102260.82
2019-06-25T00:52:52.412Z,102263.41
2019-06-25T00:55:20.948Z,102259.88
2019-06-25T00:57:50.853Z,102255.45
2019-06-25T01:00:20.379Z,102256.77
2019-06-25T01:02:52.076Z,102261.50
2019-06-25T01:05:20.553Z,102257.07
2019-06-25T01:07:49.040Z,102264.47
2019-06-25T01:10:17.632Z,102252.61
2019-06-25T01:12:46.107Z,102250.39
2019-06-25T01:15:15.855Z,102252.06
2019-06-25T01:17:44.404Z,102250.72
2019-06-25T01:20:12.948Z,102254.22
2019-06-25T01:22:41.494Z,102251.97
2019-06-25T01:25:10.001Z,102255.39
2019-06-25T01:27:38.481Z,102254.48
2019-06-25T01:30:10.374Z,102252.70
2019-06-25T01:32:38.915Z,102242.19
2019-06-25T01:35:07.836Z,102245.20
2019-06-25T01:37:36.379Z,102239.49
2019-06-25T01:40:06.534Z,102239.02
2019-06-25T01:42:35.090Z,102236.80
2019-06-25T01:45:04.758Z,102245.06
2019-06-25T01:47:33.234Z,102234.98
2019-06-25T01:50:01.699Z,102231.05
2019-06-25T01:52:30.182Z,102234.14
2019-06-25T01:54:58.703Z,102233.75
2019-06-25T01:57:27.261Z,102222.83
2019-06-25T01:59:56.858Z,102216.28
2019-06-25T02:02:25.388Z,102218.47
2019-06-25T02:04:54.040Z,102219.38
2019-06-25T02:07:22.529Z,102209.77
2019-06-25T02:09:51.043Z,102205.44
2019-06-25T02:12:19.817Z,102207.19
2019-06-25T02:14:48.312Z,102205.88
2019-06-25T02:17:16.895Z,102201.95
2019-06-25T02:19:45.381Z,102201.95
2019-06-25T02:22:13.890Z,102196.30
2019-06-25T02:24:42.408Z,102198.02
2019-06-25T02:27:10.881Z,102195.39
2019-06-25T02:29:39.362Z,102196.27
2019-06-25T02:32:07.933Z,102194.92
2019-06-25T02:34:39.086Z,102195.77
2019-06-25T02:37:06.626Z,102196.60
2019-06-25T02:39:35.161Z,102194.78
2019-06-25T02:42:03.650Z,102199.95
2019-06-25T02:44:32.127Z,102198.57
2019-06-25T02:47:00.633Z,102195.48
2019-06-25T02:49:29.125Z,102196.31
2019-06-25T02:51:57.605Z,102205.00
2019-06-25T02:54:26.171Z,102194.93
2019-06-25T02:56:54.644Z,102198.86
2019-06-25T02:59:23.134Z,102200.60
2019-06-25T03:01:52.030Z,102200.56
2019-06-25T03:04:20.513Z,102206.23
2019-06-25T03:06:48.985Z,102195.73
2019-06-25T03:09:17.503Z,102197.04
2019-06-25T03:11:45.969Z,102201.84
2019-06-25T03:14:14.470Z,102194.89
2019-06-25T03:16:43.013Z,102188.38
2019-06-25T03:19:11.487Z,102187.08
2019-06-25T03:21:40.461Z,102190.64
2019-06-25T03:24:09.036Z,102191.11
2019-06-25T03:26:37.513Z,102191.59
2019-06-25T03:29:05.995Z,102192.09
2019-06-25T03:32:02.082Z,102189.95
2019-06-25T03:34:04.823Z,102186.05
2019-06-25T03:36:33.329Z,102187.44
2019-06-25T03:39:01.835Z,102191.43
2019-06-25T03:41:30.317Z,102189.31
2019-06-25T03:43:58.797Z,102190.25
2019-06-25T03:46:27.319Z,102185.55
2019-06-25T03:48:55.862Z,102186.08
2019-06-25T03:51:24.387Z,102185.30
2019-06-25T03:53:52.905Z,102183.20
2019-06-25T03:56:21.382Z,102191.19
2019-06-25T03:58:49.928Z,102186.97
2019-06-25T04:01:18.455Z,102187.08
2019-06-25T04:03:47.326Z,102188.52
2019-06-25T04:06:15.803Z,102191.75
2019-06-25T04:08:44.374Z,102191.51
2019-06-25T04:11:12.901Z,102189.98
2019-06-25T04:13:41.365Z,102186.62
2019-06-25T04:16:09.924Z,102188.48
2019-06-25T04:18:38.413Z,102189.52
2019-06-25T04:21:06.932Z,102196.70
2019-06-25T04:23:36.780Z,102195.04
2019-06-25T04:26:05.258Z,102199.47
2019-06-25T04:28:33.748Z,102199.05
2019-06-25T04:31:02.412Z,102194.20
2019-06-25T04:33:30.905Z,102192.83
2019-06-25T04:35:59.446Z,102193.25
2019-06-25T04:38:27.920Z,102197.11
2019-06-25T04:40:56.387Z,102191.35
2019-06-25T04:43:24.861Z,102190.77
2019-06-25T04:45:54.116Z,102187.56
2019-06-25T04:48:22.611Z,102195.76
2019-06-25T04:50:51.091Z,102194.20
2019-06-25T04:53:19.629Z,102189.26
2019-06-25T04:55:48.130Z,102193.11
2019-06-25T04:58:16.624Z,102200.51
2019-06-25T05:00:45.156Z,102189.87
2019-06-25T05:03:13.767Z,102192.43
2019-06-25T05:05:42.415Z,102191.02
2019-06-25T05:08:11.012Z,102193.08
2019-06-25T05:10:39.562Z,102194.72
2019-06-25T05:13:08.061Z,102201.07
2019-06-25T05:15:36.741Z,102198.59
2019-06-25T05:18:05.448Z,102204.86
2019-06-25T05:20:33.944Z,102201.85
2019-06-25T05:23:02.540Z,102208.64
2019-06-25T05:25:31.194Z,102203.14
2019-06-25T05:27:59.669Z,102209.09
2019-06-25T05:30:29.458Z,102208.02
2019-06-25T05:33:05.420Z,102209.66
2019-06-25T05:35:28.976Z,102212.70
2019-06-25T05:37:57.482Z,102216.61
2019-06-25T05:40:25.960Z,102213.48
2019-06-25T05:42:54.461Z,102213.89
2019-06-25T05:45:23.535Z,102219.59
2019-06-25T05:47:52.022Z,102216.45
2019-06-25T05:50:21.176Z,102217.30
2019-06-25T05:52:49.706Z,102216.30
2019-06-25T05:55:18.173Z,102214.02
2019-06-25T05:57:46.650Z,102212.98
2019-06-25T06:00:16.209Z,102212.83
2019-06-25T06:02:44.760Z,102211.27
2019-06-25T06:05:14.842Z,102209.74
2019-06-25T06:07:44.774Z,102204.66
2019-06-25T06:10:16.484Z,102193.40
2019-06-25T06:12:44.951Z,102193.14
2019-06-25T06:15:13.623Z,102192.95
2019-06-25T06:17:54.334Z,102191.37
2019-06-25T06:20:22.932Z,102195.92
2019-06-25T06:22:51.780Z,102200.51
2019-06-25T06:25:20.322Z,102197.08
2019-06-25T06:27:48.876Z,102199.95
2019-06-25T06:30:17.732Z,102191.75
2019-06-25T06:32:46.212Z,102193.25
2019-06-25T06:35:14.782Z,102181.51
2019-06-25T06:37:43.263Z,102188.81
2019-06-25T06:40:11.915Z,102187.64
2019-06-25T06:42:40.449Z,102187.80
2019-06-25T06:45:09.217Z,102185.74
2019-06-25T06:47:37.794Z,102184.22
2019-06-25T06:50:07.267Z,102169.72
2019-06-25T06:52:35.784Z,102184.97
2019-06-25T06:55:07.258Z,102183.37
2019-06-25T06:57:35.883Z,102181.73
2019-06-25T07:00:06.516Z,102181.89
2019-06-25T07:02:35.086Z,102186.44
2019-06-25T07:05:03.793Z,102186.19
2019-06-25T07:07:32.369Z,102182.37
2019-06-25T07:10:02.878Z,102182.48
2019-06-25T07:12:31.509Z,102176.82
2019-06-25T07:14:59.958Z,102178.68
2019-06-25T07:17:28.449Z,102173.80
2019-06-25T07:19:56.982Z,102169.88
2019-06-25T07:22:25.501Z,102167.57
2019-06-25T07:24:54.011Z,102160.53
2019-06-25T07:27:22.615Z,102163.31
2019-06-25T07:29:51.081Z,102170.05
2019-06-25T07:32:19.574Z,102169.72
2019-06-25T07:34:48.165Z,102175.63
2019-06-25T07:37:16.691Z,102172.54
2019-06-25T07:39:45.252Z,102174.78
2019-06-25T07:42:13.756Z,102169.57
2019-06-25T07:44:42.311Z,102164.73
2019-06-25T07:47:10.801Z,102174.12
2019-06-25T07:49:39.316Z,102172.05
2019-06-25T07:52:07.804Z,102169.92
2019-06-25T07:54:36.321Z,102167.88
2019-06-25T07:57:04.857Z,102166.17
2019-06-25T07:59:33.330Z,102170.25
2019-06-25T08:02:01.878Z,102172.61
2019-06-25T08:04:30.402Z,102174.04
2019-06-25T08:06:58.948Z,102160.39
2019-06-25T08:09:27.565Z,102159.70
2019-06-25T08:11:57.203Z,102156.75
2019-06-25T08:14:25.751Z,102156.02
2019-06-25T08:16:54.245Z,102148.58
2019-06-25T08:19:22.850Z,102149.66
2019-06-25T08:21:51.399Z,102153.33
2019-06-25T08:24:19.888Z,102152.59
2019-06-25T08:26:48.413Z,102145.08
2019-06-25T08:29:16.924Z,102150.59
2019-06-25T08:31:45.390Z,102152.17
2019-06-25T08:34:13.916Z,102151.05
2019-06-25T08:36:42.522Z,102148.69
2019-06-25T08:39:11.021Z,102148.87
2019-06-25T08:41:39.552Z,102149.91
2019-06-25T08:44:08.017Z,102149.22
2019-06-25T08:46:37.439Z,102148.86
2019-06-25T08:49:06.051Z,102148.59
2019-06-25T08:51:34.539Z,102143.48
2019-06-25T08:54:03.349Z,102145.06
2019-06-25T08:56:31.920Z,102142.16
2019-06-25T08:59:00.412Z,102141.88
2019-06-25T09:01:29.719Z,102141.13
2019-06-25T09:03:58.227Z,102137.20
2019-06-25T09:06:26.989Z,102135.87
2019-06-25T09:08:55.465Z,102128.46
2019-06-25T09:11:24.027Z,102132.13
2019-06-25T09:13:52.956Z,102128.74
2019-06-25T09:16:21.421Z,102135.44
2019-06-25T09:18:49.961Z,102128.44
2019-06-25T09:21:18.449Z,102139.25
2019-06-25T09:23:46.991Z,102136.66
2019-06-25T09:26:15.504Z,102137.70
2019-06-25T09:28:44.033Z,102148.09
2019-06-25T09:31:12.553Z,102135.23
2019-06-25T09:33:41.059Z,102130.88
2019-06-25T09:36:10.690Z,102139.06
2019-06-25T09:38:39.178Z,102136.11
2019-06-25T09:41:07.133Z,102135.08
2019-06-25T09:43:34.615Z,102131.19
2019-06-25T09:46:03.557Z,102138.93
2019-06-25T09:48:32.829Z,102138.10
2019-06-25T09:51:01.483Z,102130.90
2019-06-25T09:53:30.006Z,102139.09
2019-06-25T09:55:58.531Z,102135.98
2019-06-25T09:58:29.390Z,102133.11
2019-06-25T10:00:59.380Z,102133.34
2019-06-25T10:03:28.747Z,102130.92
2019-06-25T10:05:57.313Z,102125.75
2019-06-25T10:08:25.807Z,102130.50
2019-06-25T10:10:54.337Z,102128.90
2019-06-25T10:13:22.822Z,102132.56
2019-06-25T10:15:52.828Z,102126.86
2019-06-25T10:18:21.309Z,102136.58
2019-06-25T10:20:50.159Z,102134.61
2019-06-25T10:23:18.648Z,102127.03
2019-06-25T10:25:47.277Z,102135.14
2019-06-25T10:28:28.711Z,102134.27
2019-06-25T10:30:56.368Z,102134.27
2019-06-25T10:33:25.148Z,102139.42
2019-06-25T10:35:53.793Z,102136.19
2019-06-25T10:38:22.955Z,102134.77
2019-06-25T10:40:51.724Z,102129.89
2019-06-25T10:43:20.318Z,102130.42
2019-06-25T10:45:48.983Z,102126.57
2019-06-25T10:48:21.953Z,102122.74
2019-06-25T10:50:47.870Z,102119.78
2019-06-25T10:53:16.562Z,102118.16
2019-06-25T10:55:45.112Z,102115.83
2019-06-25T10:58:13.666Z,102112.28
2019-06-25T11:00:50.683Z,102115.05
2019-06-25T11:03:19.270Z,102112.85
2019-06-25T11:06:03.392Z,102120.55
2019-06-25T11:08:18.366Z,102111.78
2019-06-25T11:10:47.070Z,102115.45
2019-06-25T11:13:15.633Z,102110.52
2019-06-25T11:15:44.255Z,102106.48
2019-06-25T11:18:13.911Z,102111.78
2019-06-25T11:20:42.481Z,102109.50
2019-06-25T11:23:11.060Z,102098.13
2019-06-25T11:25:39.616Z,102097.07
2019-06-25T11:28:08.221Z,102098.25
2019-06-25T11:30:36.821Z,102096.79
2019-06-25T11:33:05.443Z,102087.28
2019-06-25T11:35:33.959Z,102091.41
2019-06-25T11:38:02.570Z,102091.33
2019-06-25T11:40:36.069Z,102095.34
2019-06-25T11:43:05.799Z,102087.50
2019-06-25T11:45:34.473Z,102088.93
2019-06-25T11:48:03.673Z,102088.64
2019-06-25T11:50:32.313Z,102096.92
2019-06-25T11:53:01.139Z,102085.58
2019-06-25T11:55:29.718Z,102084.88
2019-06-25T11:57:58.269Z,102081.32
2019-06-25T12:00:27.429Z,102088.99
2019-06-25T12:02:55.980Z,102076.57
2019-06-25T12:05:24.542Z,102081.45
2019-06-25T12:07:54.520Z,102081.75
2019-06-25T12:10:23.450Z,102071.32
2019-06-25T12:12:52.010Z,102075.62
2019-06-25T12:15:20.700Z,102075.11
2019-06-25T12:17:49.435Z,102069.28
2019-06-25T12:20:18.579Z,102072.44
2019-06-25T12:22:47.191Z,102070.30
2019-06-25T12:25:15.820Z,102066.73
2019-06-25T12:27:44.390Z,102069.16
2019-06-25T12:30:13.269Z,102059.94
2019-06-25T12:32:41.827Z,102062.36
2019-06-25T12:35:10.671Z,102062.66
2019-06-25T12:37:39.267Z,102066.80
2019-06-25T12:40:07.996Z,102068.42
2019-06-25T12:42:37.793Z,102072.29
2019-06-25T12:45:07.232Z,102071.40
2019-06-25T12:47:35.794Z,102073.15
2019-06-25T12:50:05.707Z,102063.80
2019-06-25T12:52:34.317Z,102062.17
2019-06-25T12:55:02.887Z,102056.99
2019-06-25T12:57:31.497Z,102058.83
2019-06-25T13:00:00.124Z,102053.10
2019-06-25T13:02:28.681Z,102053.10
2019-06-25T13:04:58.956Z,102050.59
2019-06-25T13:07:27.564Z,102047.09
2019-06-25T13:09:56.198Z,102034.28
2019-06-25T13:12:24.783Z,102039.00
2019-06-25T13:14:53.371Z,102028.57
2019-06-25T13:17:21.932Z,102024.06
2019-06-25T13:19:50.513Z,102031.67
2019-06-25T13:22:19.464Z,102026.00
2019-06-25T13:24:50.963Z,102019.75
2019-06-25T13:27:18.314Z,102026.55
2019-06-25T13:29:46.944Z,102023.48
2019-06-25T13:32:15.498Z,102017.11
2019-06-25T13:34:44.052Z,102018.95
2019-06-25T13:37:12.660Z,102007.12
2019-06-25T13:39:41.210Z,102003.56
2019-06-25T13:42:09.771Z,102004.11
2019-06-25T13:44:39.827Z,102000.97
2019-06-25T13:47:08.752Z,102002.35
2019-06-25T13:49:37.326Z,101996.99
2019-06-25T13:52:05.923Z,101993.07
2019-06-25T13:54:34.491Z,101996.41
2019-06-25T13:57:03.070Z,101985.80
2019-06-25T13:59:31.658Z,101984.78
2019-06-25T14:02:00.258Z,101982.14
2019-06-25T14:04:28.779Z,101980.02
2019-06-25T14:06:57.382Z,101977.98
2019-06-25T14:09:25.941Z,101974.62
2019-06-25T14:11:54.503Z,101965.37
2019-06-25T14:14:23.112Z,101969.14
2019-06-25T14:16:51.710Z,101962.80
2019-06-25T14:19:20.281Z,101966.52
2019-06-25T14:21:48.899Z,101960.81
2019-06-25T14:24:17.910Z,101955.20
2019-06-25T14:26:46.486Z,101952.17
2019-06-25T14:29:15.871Z,101950.02
2019-06-25T14:31:44.503Z,101938.14
2019-06-25T14:34:13.275Z,101946.50
2019-06-25T14:36:41.964Z,101942.27
2019-06-25T14:39:10.535Z,101935.25
2019-06-25T14:41:39.164Z,101934.75
2019-06-25T14:44:07.853Z,101926.76
2019-06-25T14:46:36.484Z,101927.25
2019-06-25T14:49:05.180Z,101925.58
2019-06-25T14:51:33.793Z,101923.14
2019-06-25T14:54:02.349Z,101915.54
2019-06-25T14:56:30.959Z,101915.90
2019-06-25T14:58:59.589Z,101916.66
2019-06-25T15:01:28.315Z,101917.78
2019-06-25T15:03:56.877Z,101919.52
2019-06-25T15:06:25.528Z,101919.98
2019-06-25T15:08:54.247Z,101923.08
2019-06-25T15:11:22.807Z,101926.91
2019-06-25T15:13:51.416Z,101923.12
2019-06-25T15:16:19.991Z,101912.32
2019-06-25T15:18:48.548Z,101916.47
2019-06-25T15:21:17.168Z,101911.95
2019-06-25T15:23:45.747Z,101916.70
2019-06-25T15:26:14.548Z,101908.83
2019-06-25T15:28:43.152Z,101909.69
2019-06-25T15:31:11.711Z,101906.36
2019-06-25T15:33:40.269Z,101898.45
2019-06-25T15:36:08.879Z,101899.17
2019-06-25T15:38:46.855Z,101899.17
2019-06-25T15:41:07.823Z,101898.59
2019-06-25T15:43:38.457Z,101892.47
2019-06-25T15:46:07.113Z,101895.33
2019-06-25T15:48:35.680Z,101892.30
2019-06-25T15:51:04.340Z,101893.69
2019-06-25T15:53:32.904Z,101896.16
2019-06-25T15:56:01.499Z,101897.20
2019-06-25T15:58:30.192Z,101887.39
2019-06-25T16:00:58.756Z,101887.70
2019-06-25T16:03:27.330Z,101881.91
2019-06-25T16:05:55.918Z,101884.99
2019-06-25T16:08:24.508Z,101883.64
2019-06-25T16:10:53.065Z,101880.55
2019-06-25T16:13:21.689Z,101887.70
2019-06-25T16:15:50.236Z,101887.30
2019-06-25T16:18:18.809Z,101886.34
2019-06-25T16:20:47.423Z,101882.03
2019-06-25T16:23:16.058Z,101879.89
2019-06-25T16:25:44.600Z,101880.41
2019-06-25T16:28:14.229Z,101881.43
2019-06-25T16:30:42.791Z,101886.65
2019-06-25T16:33:11.349Z,101890.28
2019-06-25T16:35:40.063Z,101885.79
2019-06-25T16:38:08.653Z,101883.66
2019-06-25T16:40:37.225Z,101879.61
2019-06-25T16:43:05.869Z,101883.47
2019-06-25T16:45:34.430Z,101881.16
2019-06-25T16:48:02.998Z,101882.48
2019-06-25T16:50:31.581Z,101871.93
2019-06-25T16:53:01.095Z,101872.45
2019-06-25T16:55:29.896Z,101862.90
2019-06-25T16:57:58.504Z,101862.64
2019-06-25T17:00:27.078Z,101862.89
2019-06-25T17:02:55.639Z,101854.63
2019-06-25T17:05:31.693Z,101860.81
2019-06-25T17:07:54.526Z,101852.71
2019-06-25T17:10:23.089Z,101853.25
2019-06-25T17:12:51.729Z,101849.28
2019-06-25T17:15:20.296Z,101858.27
2019-06-25T17:17:48.907Z,101860.64
2019-06-25T17:20:17.559Z,101858.67
2019-06-25T17:22:46.138Z,101865.37
2019-06-25T17:25:14.782Z,101863.40
2019-06-25T17:27:49.970Z,101867.50
2019-06-25T17:30:15.234Z,101867.88
2019-06-25T17:32:43.805Z,101861.06
2019-06-25T17:35:12.524Z,101867.68
2019-06-25T17:37:41.093Z,101869.92
2019-06-25T17:40:09.892Z,101866.12
2019-06-25T17:42:38.489Z,101862.88
2019-06-25T17:45:07.446Z,101861.50
2019-06-25T17:47:36.136Z,101860.49
2019-06-25T17:50:06.231Z,101858.13
2019-06-25T17:52:34.790Z,101856.92
2019-06-25T17:55:03.819Z,101855.25
2019-06-25T17:57:32.497Z,101854.13
2019-06-25T18:00:01.083Z,101854.13
2019-06-25T18:02:29.606Z,101845.76
2019-06-25T18:04:58.282Z,101850.45
2019-06-25T18:07:26.934Z,101845.62
2019-06-25T18:10:07.166Z,101851.30
2019-06-25T18:12:26.012Z,101849.42
2019-06-25T18:14:54.578Z,101858.58
2019-06-25T18:17:23.206Z,101855.77
2019-06-25T18:19:51.806Z,101852.96
2019-06-25T18:22:20.369Z,101857.75
2019-06-25T18:24:48.927Z,101858.88
2019-06-25T18:27:17.465Z,101852.72
2019-06-25T18:29:45.940Z,101854.29
2019-06-25T18:32:15.478Z,101853.97
2019-06-25T18:34:44.014Z,101859.81
2019-06-25T18:37:12.490Z,101860.53
2019-06-25T18:39:40.995Z,101861.66
2019-06-25T18:42:09.649Z,101855.91
2019-06-25T18:44:38.129Z,101853.83
2019-06-25T18:47:06.602Z,101860.13
2019-06-25T18:49:35.123Z,101858.84
2019-06-25T18:52:03.610Z,101853.76
2019-06-25T18:54:32.083Z,101850.47
2019-06-25T18:57:00.601Z,101853.74
2019-06-25T18:59:29.165Z,101860.73
2019-06-25T19:02:00.968Z,101856.38
2019-06-25T19:04:27.940Z,101861.79
2019-06-25T19:06:56.424Z,101857.47
2019-06-25T19:09:24.986Z,101856.20
2019-06-25T19:11:53.518Z,101857.61
2019-06-25T19:14:22.007Z,101856.03
2019-06-25T19:16:50.463Z,101856.72
2019-06-25T19:19:19.087Z,101851.48
2019-06-25T19:21:47.584Z,101855.55
2019-06-25T19:24:16.096Z,101856.64
2019-06-25T19:26:44.630Z,101860.77
2019-06-25T19:29:13.117Z,101859.23
2019-06-25T19:31:41.597Z,101858.00
2019-06-25T19:34:10.718Z,101861.16
2019-06-25T19:36:39.281Z,101854.52
2019-06-25T19:39:09.304Z,101847.43
2019-06-25T19:41:37.832Z,101853.66
2019-06-25T19:44:06.399Z,101851.52
2019-06-25T19:46:34.937Z,101857.91
2019-06-25T19:49:03.462Z,101861.64
2019-06-25T19:51:31.943Z,101859.95
2019-06-25T19:54:00.563Z,101860.97
2019-06-25T19:56:29.118Z,101859.69
2019-06-25T19:58:57.598Z,101861.08
2019-06-25T20:01:26.085Z,101866.86
2019-06-25T20:03:54.598Z,101862.38
2019-06-25T20:06:23.212Z,101860.55
2019-06-25T20:08:51.674Z,101855.56
2019-06-25T20:11:20.197Z,101859.52
2019-06-25T20:13:48.684Z,101855.00
2019-06-25T20:16:17.168Z,101855.30
2019-06-25T20:18:45.717Z,101859.52
2019-06-25T20:21:14.212Z,101857.09
2019-06-25T20:23:42.746Z,101854.63
2019-06-25T20:26:11.256Z,101854.83
2019-06-25T20:28:39.733Z,101858.38
2019-06-25T20:31:08.227Z,101855.30
2019-06-25T20:33:36.740Z,101860.59
2019-06-25T20:36:06.279Z,101860.45
2019-06-25T20:38:34.763Z,101857.16
2019-06-25T20:41:03.267Z,101859.73
2019-06-25T20:43:31.826Z,101864.41
2019-06-25T20:46:00.305Z,101866.98
2019-06-25T20:48:28.794Z,101870.92
2019-06-25T20:50:57.269Z,101868.15
2019-06-25T20:53:25.806Z,101868.55
2019-06-25T20:55:54.364Z,101857.77
2019-06-25T20:58:22.924Z,101858.08
2019-06-25T21:00:51.458Z,101862.34
2019-06-25T21:03:19.924Z,101857.62
2019-06-25T21:05:48.391Z,101860.46
2019-06-25T21:08:16.925Z,101865.97
2019-06-25T21:10:45.402Z,101866.22
2019-06-25T21:13:13.913Z,101863.73
2019-06-25T21:15:42.805Z,101860.84
2019-06-25T21:18:11.271Z,101863.69
2019-06-25T21:20:39.752Z,101867.85
2019-06-25T21:23:08.280Z,101866.69
2019-06-25T21:25:36.791Z,101863.67
2019-06-25T21:28:05.248Z,101861.53
2019-06-25T21:30:33.793Z,101859.84
2019-06-25T21:33:02.320Z,101865.81
2019-06-25T21:35:30.831Z,101868.30
2019-06-25T21:37:59.669Z,101862.31
2019-06-25T21:40:28.157Z,101861.30
2019-06-25T21:42:56.662Z,101866.95
2019-06-25T21:45:25.175Z,101865.50
2019-06-25T21:47:53.665Z,101871.50
2019-06-25T21:50:22.675Z,101865.94
2019-06-25T21:52:51.267Z,101864.41
2019-06-25T21:55:19.833Z,101860.17
2019-06-25T21:57:48.322Z,101858.59
2019-06-25T22:00:18.861Z,101856.48
2019-06-25T22:02:58.609Z,101857.06
2019-06-25T22:05:27.211Z,101857.73
2019-06-25T22:07:55.684Z,101858.88
2019-06-25T22:10:24.908Z,101864.89
2019-06-25T22:12:53.465Z,101859.83
2019-06-25T22:15:22.442Z,101859.61
2019-06-25T22:17:50.931Z,101864.28
2019-06-25T22:20:19.597Z,101864.89
2019-06-25T22:22:48.142Z,101857.16
2019-06-25T22:25:16.697Z,101857.76
2019-06-25T22:27:45.221Z,101858.73
2019-06-25T22:30:15.544Z,101861.52
2019-06-25T22:32:44.031Z,101861.23
2019-06-25T22:35:12.632Z,101862.69
2019-06-25T22:37:41.106Z,101855.35
2019-06-25T22:40:10.386Z,101854.26
2019-06-25T22:42:38.853Z,101847.48
2019-06-25T22:45:07.929Z,101857.04
2019-06-25T22:47:36.509Z,101851.09
2019-06-25T22:50:07.516Z,101857.82
2019-06-25T22:52:36.074Z,101857.88
2019-06-25T22:55:05.934Z,101850.48
2019-06-25T22:57:34.487Z,101851.40
2019-06-25T23:00:03.019Z,101848.00
2019-06-25T23:02:31.531Z,101847.27
2019-06-25T23:05:00.027Z,101857.14
2019-06-25T23:07:28.492Z,101853.78
2019-06-25T23:09:57.003Z,101847.78
2019-06-25T23:12:25.488Z,101840.46
2019-06-25T23:14:54.043Z,101844.16
2019-06-25T23:17:22.615Z,101839.55
2019-06-25T23:19:51.099Z,101843.70
2019-06-25T23:22:19.581Z,101846.95
2019-06-25T23:24:48.187Z,101839.63
2019-06-25T23:27:16.743Z,101843.31
2019-06-25T23:29:45.238Z,101836.87
2019-06-25T23:32:13.748Z,101834.82
2019-06-25T23:34:42.259Z,101830.98
2019-06-25T23:37:10.737Z,101835.12
2019-06-25T23:39:39.326Z,101830.78
2019-06-25T23:42:08.667Z,101830.02
2019-06-25T23:44:37.156Z,101830.13
2019-06-25T23:47:05.661Z,101821.02
2019-06-25T23:49:34.146Z,101820.22
2019-06-25T23:52:02.628Z,101818.14
2019-06-25T23:54:31.164Z,101818.19
2019-06-25T23:56:59.701Z,101810.77
2019-06-25T23:59:28.211Z,101809.05
